• Join FlightAware (Why Join?)
  • Login
  • US Flag 
04:11PM EDT


 

Airport Tracker/Info


-or-


 

Live Flight TrackerFlight Track Log ✈ N830QS ✈ 20-Oct-2013 ✈ KWVI - KLAX

Flight Track Log - Related Links

Times and Time Zones

All times are in EDT time to prevent confusion due to time zone crossing. See the N830QS flight status page for this flight to view local times or setup timezone preferences in your user account.

Time Position Orientation Groundspeed Altitude Reporting Facility
EDT Latitude Longitude Course Direction KTS MPH feet Rate Location/Type
07:27PM 36.9000 -121.8000 130° Southeast 213 245 2,500  Level Northern Cal TRACON
07:28PM 36.8500 -121.7500 141° Southeast 246 283 6,100 3,780 Climbing Northern Cal TRACON
07:29PM 36.8000 -121.6833 133° Southeast 271 312 10,100 3,660 Climbing Northern Cal TRACON
07:30PM 36.7500 -121.6000 127° Southeast 296 341 13,400 2,820 Climbing Northern Cal TRACON
07:31PM 36.7081 -121.5572 141° Southeast 293 337 15,100 2,400 Climbing Oakland Center
07:32PM 36.6506 -121.4694 129° Southeast 322 371 17,700 1,860 Climbing Oakland Center
07:33PM 36.4815 -121.2527 130° Southeast  Level Estimated
07:33PM 36.5881 -121.3756 130° Southeast 351 404 19,000  Level Oakland Center
07:34PM 36.5194 -121.2742 130° Southeast 381 438 19,000 780 Level Oakland Center
07:35PM 36.4531 -121.1714 129° Southeast 381 438 20,600 1,020 Climbing Oakland Center
07:36PM 36.3828 -121.0675 130° Southeast 391 450 21,200 600 Climbing Oakland Center
07:37PM 36.2994 -120.9411 129° Southeast 395 455 21,900 600 Climbing Oakland Center
07:38PM 36.2281 -120.8347 130° Southeast 400 460 22,500 540 Climbing Oakland Center
07:39PM 36.1550 -120.7253 130° Southeast 410 472 23,100 780 Climbing Oakland Center
07:40PM 36.0817 -120.6161 130° Southeast 412 474 24,100 780 Climbing Oakland Center
07:41PM 36.0072 -120.5072 130° Southeast 415 478 24,800 660 Climbing Oakland Center
07:42PM 35.9303 -120.3944 130° Southeast 425 489 25,500 660 Climbing Oakland Center
07:44PM 35.8533 -120.2797 130° Southeast 430 495 26,200 660 Climbing Oakland Center
07:45PM 35.7747 -120.1658 130° Southeast 433 498 26,900 360 Climbing Oakland Center
07:46PM 35.6961 -120.0492 130° Southeast 438 504 27,000  Climbing Oakland Center
07:47PM 35.5886 -119.9278 137° Southeast 438 504 27,000  Level Oakland Center
07:48PM 35.4875 -119.8403 145° Southeast 440 506 27,000  Level Oakland Center
07:49PM 35.3864 -119.7542 145° Southeast 440 506 27,000  Level Oakland Center
07:50PM 35.2858 -119.6678 145° Southeast 440 506 27,000  Level Oakland Center
07:51PM 35.1864 -119.5819 145° Southeast 438 504 27,000  Level Oakland Center
07:52PM 35.0858 -119.4967 145° Southeast 438 504 27,000  Level Oakland Center
07:53PM 34.9847 -119.4097 145° Southeast 443 510 27,000  Level Oakland Center
07:54PM 34.8833 -119.3236 145° Southeast 444 511 27,000 -1,020 Level Oakland Center
07:55PM 34.7450 -119.2056 145° Southeast 435 501 24,700 -1,980 Descending Los Angeles Center
07:56PM 34.6486 -119.1244 145° Southeast 423 487 22,500 -2,160 Descending Los Angeles Center
07:57PM 34.5483 -119.0433 146° Southeast 411 473 20,300 -2,100 Descending Los Angeles Center
07:58PM 34.4592 -118.9692 146° Southeast 391 450 18,200 -1,980 Descending Los Angeles Center
07:59PM 34.3714 -118.8939 145° Southeast 386 444 16,200 -2,040 Descending Los Angeles Center
08:00PM 34.2728 -118.8519 161° South 378 435 14,100 -2,100 Descending Los Angeles Center
08:01PM 34.1589 -118.8097 163° South 360 414 11,900 -1,380 Descending Los Angeles Center
08:03PM 34.0714 -118.7758 162° South 343 395 11,000 -840 Descending Los Angeles Center
08:04PM 34.0297 -118.6631 114° Southeast 286 329 10,000 -1,200 Descending Los Angeles Center
08:05PM 34.0219 -118.5794 96° East 254 292 8,500 -1,440 Descending Los Angeles Center
08:06PM 34.0142 -118.4981 97° East 246 283 7,000 -1,080 Descending Los Angeles Center
08:07PM 34.0122 -118.4356 92° East 211 243 6,300 -1,200 Descending Los Angeles Center
08:08PM 34.0200 -118.3681 82° East 205 236 4,600 -1,860 Descending Los Angeles Center
08:09PM 34.0272 -118.2889 84° East 200 230 2,500 -1,020 Descending Los Angeles Center
08:10PM 34.0317 -118.2264 85° East 191 220 2,500  Level Los Angeles Center
08:11PM 34.0000 -118.1911 137° Southeast 197 227 2,500  Level Los Angeles Center
08:12PM 33.9919 -118.2467 260° West 179 206 2,500 -180 Level Los Angeles Center
08:13PM 33.9653 -118.2983 238° Southwest 180 207 2,100 -780 Descending Los Angeles Center
08:14PM 33.9575 -118.3650 262° West 152 175 800 -960 Descending Los Angeles Center
08:15PM 33.9522 -118.4056 261° West 135 155 100 -720 Descending Los Angeles Center
08:17PM 33.9425 -118.4081 250° West  Level Estimated
08:24PM 33.9425 -118.4081 250° West  Level Estimated